Terminal Aerodrome Forecast
Issued by NWS

Home | Current Version | Previous Version | Text Only | Print | Product List | Glossary Off
Versions: 1 2 3 4 5 6 7 8 9 10 11 12 13 14 15 16 17 18 19 20 21 22 23 24 25 26 27 28 29 30 31 32 33 34 35

000
FTUS43 KGRB 260350 AAB
TAFATW
TAF AMD
KATW 260350Z 2604/2624 12005KT 5SM -SHRA BR SCT006 OVC020
     FM260700 18005KT 5SM BR BKN005
     FM261500 21010G17KT P6SM SCT025 BKN040
     FM262300 16007KT P6SM SCT045 BKN250=

USA.gov is the U.S. government's official web portal to all federal, state and local government web resources and services.